SLLP/LPB METAR and TAF weather

Enter ICAO airport designator
Station Type Date Time Source
SLLP METAR 2021/04/13 22:00 UTC NOAA

SLLP 132200Z 07008KT 9999 VCTS SCT017 FEW020CB BKN200 11/04 Q1036


Station Type Date Time Source
SLLP Decoded METAR 2021/04/13 22:00 UTC NOAA

La Paz / Alto, Bolivia (SLLP) 16-31S 068-11W 4038M
Apr 13, 2021 - 06:00 PM EDT / 2021.04.13 2200 UTC
Wind: from the ENE (070 degrees) at 9 MPH (8 KT):0
Visibility: greater than 7 mile(s):0
Sky conditions: mostly cloudy
Weather: thunder in the vicinity; Cumulonimbus clouds observed
Temperature: 51 F (11 C)
Dew Point: 39 F (4 C)
Relative Humidity: 61%
Pressure (altimeter): 30.59 in. Hg (1036 hPa)
ob: SLLP 132200Z 07008KT 9999 VCTS SCT017 FEW020CB BKN200 11/04 Q1036
cycle: 22

Station Type Date Time Source
SLLP TAF 2021/04/13 18:50 UTC NOAA

TAF SLLP 131750Z 1318/1418 13008KT 9999 SCT017 FEW020CB TX16/1320Z TN03/1410Z
TEMPO 1319/1323 8000 VCTSSH
BECMG 1403/1405 07005KT 3000E VCFG FEW003 SCT012
BECMG 1412/1414 13006KT 9999 NSW SCT015

Example: see airport list